Time;durP1;ratioP1;P1;durP2;ratioP2;P2;SDS_P1;SDS_P2;PMS_P1;PMS_P2;Temp;Humidity;BMP_temperature;BMP_pressure;BME280_temperature;BME280_humidity;BME280_pressure;Samples;Min_cycle;Max_cycle;Signal;HPM_P1;HPM_P2
2022/01/07 00:00:59;;;;;;;;;;;22.60;51.20;;;;;;5053158;28;20703;-67
2022/01/07 00:03:25;;;;;;;;;;;22.60;51.10;;;;;;5055454;28;19921;-67
2022/01/07 00:05:51;;;;;;;;;;;22.70;51.10;;;;;;5055389;28;19928;-66
2022/01/07 00:08:17;;;;;;;;;;;22.70;51.10;;;;;;5053114;28;19924;-66
2022/01/07 00:10:42;;;;;;;;;;;22.60;51.00;;;;;;5052273;28;19917;-67
2022/01/07 00:13:08;;;;;;;;;;;22.60;51.10;;;;;;5055946;28;19928;-67
2022/01/07 00:15:33;;;;;;;;;;;22.70;51.00;;;;;;5055970;28;19924;-65
2022/01/07 00:17:59;;;;;;;;;;;22.60;51.00;;;;;;5055561;28;19927;-65
2022/01/07 00:20:25;;;;;;;;;;;22.60;50.90;;;;;;5056868;28;20385;-66
2022/01/07 00:22:51;;;;;;;;;;;22.70;50.90;;;;;;5057857;28;19924;-67
2022/01/07 00:25:17;;;;;;;;;;;22.70;50.90;;;;;;5059555;28;20357;-66
2022/01/07 00:27:43;;;;;;;;;;;22.70;50.80;;;;;;5058251;28;20257;-66
2022/01/07 00:30:10;;;;;;;;;;;22.60;50.80;;;;;;5060590;28;19928;-65
2022/01/07 00:32:35;;;;;;;;;;;22.60;50.80;;;;;;5061604;28;19921;-66
2022/01/07 00:35:01;;;;;;;;;;;22.60;50.80;;;;;;5059461;28;20368;-67
2022/01/07 00:37:26;;;;;;;;;;;22.60;50.80;;;;;;5057506;28;19920;-64
2022/01/07 00:39:52;;;;;;;;;;;22.60;50.80;;;;;;5059619;28;19912;-68
2022/01/07 00:42:18;;;;;;;;;;;22.60;50.70;;;;;;5061104;28;20007;-64
2022/01/07 00:44:43;;;;;;;;;;;22.60;50.70;;;;;;5060815;28;20333;-66
2022/01/07 00:47:09;;;;;;;;;;;22.60;50.70;;;;;;5062111;28;20416;-66
2022/01/07 00:49:34;;;;;;;;;;;22.60;50.60;;;;;;5059168;28;19916;-67
2022/01/07 00:52:01;;;;;;;;;;;22.60;50.70;;;;;;5061326;28;19920;-66
2022/01/07 00:54:27;;;;;;;;;;;22.60;50.70;;;;;;5062183;28;19924;-66
2022/01/07 00:56:52;;;;;;;;;;;22.60;50.70;;;;;;5060457;28;19923;-66
2022/01/07 00:59:18;;;;;;;;;;;22.60;50.60;;;;;;5059833;28;20609;-66
2022/01/07 01:01:44;;;;;;;;;;;22.60;50.60;;;;;;5058809;28;20069;-66
2022/01/07 01:04:09;;;;;;;;;;;22.60;50.60;;;;;;5061899;28;19920;-65
2022/01/07 01:06:35;;;;;;;;;;;22.60;50.60;;;;;;5060282;28;20027;-66
2022/01/07 01:09:00;;;;;;;;;;;22.60;50.50;;;;;;5056487;28;20415;-67
2022/01/07 01:11:26;;;;;;;;;;;22.60;50.50;;;;;;5058703;28;20407;-64
2022/01/07 01:13:51;;;;;;;;;;;22.60;50.50;;;;;;5060778;28;19920;-64
2022/01/07 01:16:17;;;;;;;;;;;22.60;50.50;;;;;;5062104;28;20265;-65
2022/01/07 01:18:42;;;;;;;;;;;22.60;50.40;;;;;;5060173;28;19932;-66
2022/01/07 01:21:08;;;;;;;;;;;22.60;50.40;;;;;;5061030;28;19967;-67
2022/01/07 01:23:33;;;;;;;;;;;22.60;51.00;;;;;;5061177;28;19916;-63
2022/01/07 01:25:59;;;;;;;;;;;22.60;50.40;;;;;;5058948;28;19920;-66
2022/01/07 01:28:24;;;;;;;;;;;22.60;50.50;;;;;;5059170;28;19932;-67
2022/01/07 01:30:50;;;;;;;;;;;22.60;50.50;;;;;;5059741;28;19920;-66
2022/01/07 01:33:15;;;;;;;;;;;22.60;50.50;;;;;;5060560;28;19924;-65
2022/01/07 01:35:41;;;;;;;;;;;22.60;50.40;;;;;;5060342;28;19920;-67
2022/01/07 01:38:06;;;;;;;;;;;22.60;50.30;;;;;;5059675;28;19917;-66
2022/01/07 01:40:32;;;;;;;;;;;22.60;50.30;;;;;;5058214;28;20015;-65
2022/01/07 01:42:58;;;;;;;;;;;22.60;50.40;;;;;;5060930;28;19920;-66
2022/01/07 01:45:24;;;;;;;;;;;22.60;50.40;;;;;;5059237;28;19916;-66
2022/01/07 01:47:50;;;;;;;;;;;22.60;50.30;;;;;;5062076;28;20348;-64
2022/01/07 01:50:16;;;;;;;;;;;22.60;50.40;;;;;;5053897;28;19956;-66
2022/01/07 01:52:46;;;;;;;;;;;22.60;50.30;;;;;;5057099;28;19960;-64
2022/01/07 01:55:11;;;;;;;;;;;22.60;50.30;;;;;;5057652;28;19924;-67
2022/01/07 01:57:37;;;;;;;;;;;22.60;50.20;;;;;;5056550;28;19943;-67
2022/01/07 02:00:04;;;;;;;;;;;22.60;50.20;;;;;;5058104;28;19951;-67
2022/01/07 02:02:30;;;;;;;;;;;22.50;50.10;;;;;;5068273;28;19966;-64
2022/01/07 02:04:56;;;;;;;;;;;22.50;50.10;;;;;;5053444;28;19948;-63
2022/01/07 02:07:25;;;;;;;;;;;22.50;50.20;;;;;;5057062;28;19974;-65
2022/01/07 02:09:51;;;;;;;;;;;22.50;50.20;;;;;;5060198;28;19917;-66
2022/01/07 02:12:17;;;;;;;;;;;22.50;50.20;;;;;;5055272;28;19947;-65
2022/01/07 02:14:52;;;;;;;;;;;22.40;50.20;;;;;;5055490;28;19924;-67
2022/01/07 02:17:18;;;;;;;;;;;22.40;50.20;;;;;;5055226;28;19989;-64
2022/01/07 02:19:44;;;;;;;;;;;22.40;50.30;;;;;;5056318;28;20300;-64
2022/01/07 02:22:11;;;;;;;;;;;22.40;50.20;;;;;;5054968;28;19927;-65
2022/01/07 02:24:37;;;;;;;;;;;22.30;50.30;;;;;;5058210;28;19917;-66
2022/01/07 02:27:03;;;;;;;;;;;22.30;50.30;;;;;;5058431;28;20509;-64
2022/01/07 02:29:28;;;;;;;;;;;22.30;50.30;;;;;;5063885;28;20019;-64
2022/01/07 02:31:54;;;;;;;;;;;22.30;50.30;;;;;;5056701;28;19951;-66
2022/01/07 02:34:20;;;;;;;;;;;22.20;50.30;;;;;;5059000;28;20015;-67
2022/01/07 02:36:45;;;;;;;;;;;22.20;50.30;;;;;;5059198;28;19916;-63
2022/01/07 02:39:11;;;;;;;;;;;22.20;50.40;;;;;;5053931;28;19923;-67
2022/01/07 02:41:36;;;;;;;;;;;22.20;50.40;;;;;;5058646;28;19946;-67
2022/01/07 02:44:02;;;;;;;;;;;22.20;50.40;;;;;;5051430;28;22366;-67
2022/01/07 02:46:27;;;;;;;;;;;22.20;50.40;;;;;;5062226;28;19916;-63
2022/01/07 02:48:53;;;;;;;;;;;22.10;50.40;;;;;;5060757;28;19989;-63
2022/01/07 02:51:18;;;;;;;;;;;22.10;50.40;;;;;;5065847;28;20256;-64
2022/01/07 02:53:44;;;;;;;;;;;22.00;50.40;;;;;;5054229;28;19927;-66
2022/01/07 02:56:11;;;;;;;;;;;22.00;50.40;;;;;;5057728;28;19952;-65
2022/01/07 02:58:37;;;;;;;;;;;22.00;50.40;;;;;;5059304;28;19940;-65
2022/01/07 03:01:03;;;;;;;;;;;22.00;50.50;;;;;;5056883;28;20368;-65
2022/01/07 03:03:28;;;;;;;;;;;22.00;50.50;;;;;;5058043;28;19929;-67
2022/01/07 03:05:54;;;;;;;;;;;22.00;50.50;;;;;;5063190;28;19920;-67
2022/01/07 03:08:19;;;;;;;;;;;22.00;50.60;;;;;;5063617;28;19980;-67
2022/01/07 03:10:45;;;;;;;;;;;22.00;50.60;;;;;;5060032;28;19913;-67
2022/01/07 03:13:10;;;;;;;;;;;21.90;50.60;;;;;;5060686;28;20330;-63
2022/01/07 03:15:37;;;;;;;;;;;21.90;50.60;;;;;;5058532;28;19916;-65
2022/01/07 03:18:03;;;;;;;;;;;21.90;50.60;;;;;;5056822;28;20294;-65
2022/01/07 03:20:29;;;;;;;;;;;21.90;50.70;;;;;;5062634;28;19965;-65
2022/01/07 03:22:54;;;;;;;;;;;21.90;50.70;;;;;;5054536;28;19928;-65
2022/01/07 03:25:20;;;;;;;;;;;21.80;50.60;;;;;;5060973;28;19989;-64
2022/01/07 03:27:46;;;;;;;;;;;21.80;50.70;;;;;;5061836;28;19958;-65
2022/01/07 03:30:12;;;;;;;;;;;21.80;50.70;;;;;;5057224;28;19923;-65
2022/01/07 03:32:38;;;;;;;;;;;21.80;50.80;;;;;;5056565;28;19982;-67
2022/01/07 03:35:05;;;;;;;;;;;21.80;50.80;;;;;;5059980;28;20364;-65
2022/01/07 03:37:30;;;;;;;;;;;21.80;50.80;;;;;;5051724;28;19917;-65
2022/01/07 03:39:56;;;;;;;;;;;21.70;50.80;;;;;;5060632;28;19912;-67
2022/01/07 03:42:21;;;;;;;;;;;21.70;50.80;;;;;;5054566;28;19935;-64
2022/01/07 03:44:47;;;;;;;;;;;21.70;50.90;;;;;;5059299;28;20242;-64
2022/01/07 03:47:12;;;;;;;;;;;21.70;50.90;;;;;;5057514;28;19917;-64
2022/01/07 03:49:38;;;;;;;;;;;21.70;50.90;;;;;;5060669;28;19920;-65
2022/01/07 03:52:04;;;;;;;;;;;21.60;50.90;;;;;;5056611;28;20024;-65
2022/01/07 03:54:29;;;;;;;;;;;21.60;51.00;;;;;;5063947;28;19958;-67
2022/01/07 03:56:55;;;;;;;;;;;21.60;51.00;;;;;;5064293;28;19948;-67
2022/01/07 03:59:20;;;;;;;;;;;21.60;51.00;;;;;;5060037;28;20433;-64
2022/01/07 04:01:46;;;;;;;;;;;21.50;51.00;;;;;;5060762;28;19916;-67
2022/01/07 04:04:11;;;;;;;;;;;21.50;51.10;;;;;;5068742;28;19916;-65
2022/01/07 04:06:37;;;;;;;;;;;21.50;51.10;;;;;;5062200;28;20016;-65
2022/01/07 04:09:02;;;;;;;;;;;21.50;51.10;;;;;;5063379;28;20024;-65
2022/01/07 04:11:28;;;;;;;;;;;21.50;51.10;;;;;;5062837;28;19920;-65
2022/01/07 04:13:53;;;;;;;;;;;21.50;51.20;;;;;;5066337;28;19920;-65
2022/01/07 04:16:19;;;;;;;;;;;21.50;51.20;;;;;;5053751;28;20256;-65
2022/01/07 04:18:44;;;;;;;;;;;21.50;51.20;;;;;;5069633;28;20386;-65
2022/01/07 04:21:10;;;;;;;;;;;21.50;51.30;;;;;;5068518;28;19951;-67
2022/01/07 04:23:35;;;;;;;;;;;21.40;51.20;;;;;;5065711;28;19916;-64
2022/01/07 04:26:01;;;;;;;;;;;21.40;51.20;;;;;;5060544;28;19924;-63
2022/01/07 04:28:26;;;;;;;;;;;21.40;51.30;;;;;;5060217;28;20387;-63
2022/01/07 04:30:52;;;;;;;;;;;21.40;51.30;;;;;;5061876;28;19921;-67
2022/01/07 04:33:25;;;;;;;;;;;21.40;51.30;;;;;;5057148;28;19925;-63
2022/01/07 04:35:51;;;;;;;;;;;21.30;51.30;;;;;;5060480;28;19917;-65
2022/01/07 04:38:16;;;;;;;;;;;21.40;51.40;;;;;;5064213;28;20041;-65
2022/01/07 04:40:42;;;;;;;;;;;21.40;51.40;;;;;;5059443;28;20289;-64
2022/01/07 04:43:07;;;;;;;;;;;21.40;51.40;;;;;;5061335;28;20326;-65
2022/01/07 04:45:34;;;;;;;;;;;21.40;51.50;;;;;;5058693;28;19909;-67
2022/01/07 04:47:59;;;;;;;;;;;21.30;51.40;;;;;;5064861;28;19920;-67
2022/01/07 04:50:25;;;;;;;;;;;21.30;51.50;;;;;;5054411;28;19978;-67
2022/01/07 04:52:51;;;;;;;;;;;21.30;51.60;;;;;;5067970;28;19970;-67
2022/01/07 04:55:18;;;;;;;;;;;21.30;51.60;;;;;;5059212;28;20394;-64
2022/01/07 04:57:44;;;;;;;;;;;21.30;51.60;;;;;;5061239;28;20023;-67
2022/01/07 05:00:10;;;;;;;;;;;21.30;51.60;;;;;;5056325;28;19962;-67
2022/01/07 05:02:36;;;;;;;;;;;21.30;51.60;;;;;;5058323;28;20264;-65
2022/01/07 05:05:02;;;;;;;;;;;21.30;51.60;;;;;;5061896;28;20015;-63
2022/01/07 05:07:27;;;;;;;;;;;21.20;51.60;;;;;;5058894;28;19912;-65
2022/01/07 05:09:52;;;;;;;;;;;21.20;51.60;;;;;;5052919;28;19959;-66
2022/01/07 05:12:18;;;;;;;;;;;21.20;51.60;;;;;;5065399;28;19919;-67
2022/01/07 05:14:43;;;;;;;;;;;21.20;51.70;;;;;;5053099;28;19924;-63
2022/01/07 05:17:09;;;;;;;;;;;21.20;51.70;;;;;;5058109;28;20367;-66
2022/01/07 05:19:35;;;;;;;;;;;21.20;51.70;;;;;;5056921;28;20040;-63
2022/01/07 05:22:00;;;;;;;;;;;21.20;51.70;;;;;;5053606;28;19921;-65
2022/01/07 05:24:26;;;;;;;;;;;21.10;51.70;;;;;;5058221;28;20008;-63
2022/01/07 05:26:52;;;;;;;;;;;21.10;51.70;;;;;;5058501;28;19916;-63
2022/01/07 05:29:17;;;;;;;;;;;21.10;51.80;;;;;;5056641;28;20214;-65
2022/01/07 05:31:43;;;;;;;;;;;21.10;51.80;;;;;;5091597;27;20193;-67
2022/01/07 05:34:08;;;;;;;;;;;21.10;51.80;;;;;;5049944;28;19924;-65
2022/01/07 05:36:34;;;;;;;;;;;21.10;51.80;;;;;;5056551;28;19912;-65
2022/01/07 05:38:59;;;;;;;;;;;21.10;51.90;;;;;;5051421;28;19959;-65
2022/01/07 05:41:25;;;;;;;;;;;21.10;51.90;;;;;;5060819;28;19912;-65
2022/01/07 05:43:50;;;;;;;;;;;21.10;51.90;;;;;;5057173;28;20353;-67
2022/01/07 05:46:16;;;;;;;;;;;21.00;51.90;;;;;;5061946;28;19920;-65
2022/01/07 05:48:45;;;;;;;;;;;21.00;51.90;;;;;;5060468;28;19928;-65
2022/01/07 05:51:11;;;;;;;;;;;21.00;52.00;;;;;;5058834;28;19971;-65
2022/01/07 05:53:36;;;;;;;;;;;21.00;52.00;;;;;;5059665;28;19980;-63
2022/01/07 05:56:02;;;;;;;;;;;21.00;52.00;;;;;;5064242;28;19991;-66
2022/01/07 05:58:28;;;;;;;;;;;21.00;52.00;;;;;;5056041;28;20010;-66
2022/01/07 06:00:53;;;;;;;;;;;21.00;52.10;;;;;;5061947;28;19920;-67
2022/01/07 06:03:19;;;;;;;;;;;21.00;52.10;;;;;;5062328;28;19920;-63
2022/01/07 06:05:44;;;;;;;;;;;21.00;52.10;;;;;;5062500;28;19929;-65
2022/01/07 06:08:10;;;;;;;;;;;21.00;52.10;;;;;;5057337;28;20115;-65
2022/01/07 06:10:35;;;;;;;;;;;20.90;52.10;;;;;;5057835;28;19962;-63
2022/01/07 06:13:01;;;;;;;;;;;20.90;52.10;;;;;;5059151;28;19916;-65
2022/01/07 06:15:26;;;;;;;;;;;20.90;52.10;;;;;;5058892;28;20407;-65
2022/01/07 06:17:52;;;;;;;;;;;20.90;52.20;;;;;;5051883;28;19928;-65
2022/01/07 06:20:19;;;;;;;;;;;20.90;52.20;;;;;;5058680;28;19916;-65
2022/01/07 06:22:45;;;;;;;;;;;20.90;52.20;;;;;;5054662;28;19970;-64
2022/01/07 06:25:10;;;;;;;;;;;20.90;52.20;;;;;;5061860;28;20048;-66
2022/01/07 06:27:38;;;;;;;;;;;20.90;52.20;;;;;;5051846;28;20007;-66
2022/01/07 06:30:04;;;;;;;;;;;20.90;52.20;;;;;;5062862;28;19916;-63
2022/01/07 06:32:30;;;;;;;;;;;20.90;52.20;;;;;;5052410;28;19921;-62
2022/01/07 06:34:55;;;;;;;;;;;20.80;52.30;;;;;;5058805;28;19945;-66
2022/01/07 06:37:21;;;;;;;;;;;20.80;52.20;;;;;;5052451;28;19921;-65
2022/01/07 06:39:46;;;;;;;;;;;20.90;52.30;;;;;;5059955;28;20015;-66
2022/01/07 06:42:12;;;;;;;;;;;20.80;52.30;;;;;;5055547;28;19958;-67
2022/01/07 06:44:37;;;;;;;;;;;20.80;52.30;;;;;;5058777;28;19927;-66
2022/01/07 06:47:04;;;;;;;;;;;20.80;52.30;;;;;;5059642;28;19963;-66
2022/01/07 06:49:29;;;;;;;;;;;20.80;52.30;;;;;;5059893;28;20098;-65
2022/01/07 06:51:55;;;;;;;;;;;20.80;52.30;;;;;;5058646;28;20015;-66
2022/01/07 06:54:20;;;;;;;;;;;20.80;52.40;;;;;;5058091;28;19921;-63
2022/01/07 06:56:46;;;;;;;;;;;20.80;52.40;;;;;;5054028;28;19913;-65
2022/01/07 06:59:12;;;;;;;;;;;20.80;52.40;;;;;;5056650;28;19963;-66
2022/01/07 07:01:38;;;;;;;;;;;20.70;52.40;;;;;;5060398;28;19948;-62
2022/01/07 07:04:04;;;;;;;;;;;20.80;52.50;;;;;;5060223;28;19948;-66
2022/01/07 07:06:29;;;;;;;;;;;20.70;52.40;;;;;;5059670;28;19994;-66
2022/01/07 07:08:55;;;;;;;;;;;20.70;52.40;;;;;;5057736;28;19970;-66
2022/01/07 07:11:20;;;;;;;;;;;20.70;52.50;;;;;;5059283;28;19974;-63
2022/01/07 07:13:46;;;;;;;;;;;20.70;53.00;;;;;;5059970;28;19917;-64
2022/01/07 07:16:11;;;;;;;;;;;20.70;52.50;;;;;;5052699;28;19913;-62
2022/01/07 07:18:37;;;;;;;;;;;20.70;52.50;;;;;;5057857;28;20281;-65
2022/01/07 07:21:02;;;;;;;;;;;20.70;52.50;;;;;;5058191;28;19917;-62
2022/01/07 07:23:28;;;;;;;;;;;20.70;52.50;;;;;;5052614;28;20308;-66
2022/01/07 07:25:53;;;;;;;;;;;20.70;52.50;;;;;;5064413;28;19952;-65
2022/01/07 07:28:19;;;;;;;;;;;20.60;52.50;;;;;;5056533;28;19912;-65
2022/01/07 07:30:45;;;;;;;;;;;20.70;52.50;;;;;;5088737;27;19916;-64
2022/01/07 07:38:36;;;;;;;;;;;20.60;52.50;;;;;;5055260;28;20062;-63
2022/01/07 07:41:01;;;;;;;;;;;20.60;52.60;;;;;;5054326;28;20011;-65
2022/01/07 07:43:27;;;;;;;;;;;20.60;52.50;;;;;;5052157;28;19966;-62
2022/01/07 07:45:53;;;;;;;;;;;20.60;52.60;;;;;;5055394;28;20002;-64
2022/01/07 07:48:18;;;;;;;;;;;20.60;52.60;;;;;;5063851;28;19927;-62
2022/01/07 07:50:44;;;;;;;;;;;20.60;52.60;;;;;;5052221;28;19917;-61
2022/01/07 07:53:09;;;;;;;;;;;20.60;52.60;;;;;;5055627;28;19921;-61
2022/01/07 07:55:35;;;;;;;;;;;20.60;52.60;;;;;;5056870;28;19958;-64
2022/01/07 07:58:00;;;;;;;;;;;20.60;52.60;;;;;;5061809;28;19916;-65
2022/01/07 08:00:26;;;;;;;;;;;20.60;52.60;;;;;;5052685;28;19913;-65
2022/01/07 08:02:51;;;;;;;;;;;20.60;52.60;;;;;;5065105;28;19935;-63
2022/01/07 08:05:17;;;;;;;;;;;20.60;52.60;;;;;;5053865;28;20303;-66
2022/01/07 08:07:42;;;;;;;;;;;20.50;52.60;;;;;;5061264;28;19928;-62
2022/01/07 08:10:08;;;;;;;;;;;20.50;52.60;;;;;;5053759;28;19917;-64
2022/01/07 08:18:04;;;;;;;;;;;20.50;52.70;;;;;;5054366;28;19958;-62
2022/01/07 08:20:30;;;;;;;;;;;20.50;52.70;;;;;;5050193;28;19952;-64
2022/01/07 08:22:56;;;;;;;;;;;20.50;52.70;;;;;;5054271;28;19939;-66
2022/01/07 08:25:22;;;;;;;;;;;20.50;52.70;;;;;;5053617;28;19983;-64
2022/01/07 08:27:49;;;;;;;;;;;20.50;52.80;;;;;;5056851;28;20261;-63
2022/01/07 08:30:22;;;;;;;;;;;20.50;52.80;;;;;;5056679;28;19960;-64
2022/01/07 08:35:35;;;;;;;;;;;20.50;52.80;;;;;;5076687;28;19943;-62
2022/01/07 08:38:00;;;;;;;;;;;20.50;52.80;;;;;;5072381;28;19916;-64
2022/01/07 08:40:26;;;;;;;;;;;20.40;52.70;;;;;;5073928;28;19912;-64
2022/01/07 08:42:52;;;;;;;;;;;20.40;52.70;;;;;;5079164;28;19917;-64
2022/01/07 08:45:17;;;;;;;;;;;20.40;52.80;;;;;;5083993;28;19952;-63
2022/01/07 08:47:42;;;;;;;;;;;20.40;52.80;;;;;;5079465;28;20008;-62
2022/01/07 08:50:08;;;;;;;;;;;20.40;52.80;;;;;;5080872;28;19925;-63
2022/01/07 08:52:34;;;;;;;;;;;20.40;52.80;;;;;;5071871;28;20287;-63
2022/01/07 08:54:59;;;;;;;;;;;20.40;52.80;;;;;;5078393;28;19923;-66
2022/01/07 08:57:25;;;;;;;;;;;20.40;52.90;;;;;;5077569;28;20003;-65
2022/01/07 08:59:51;;;;;;;;;;;20.40;52.90;;;;;;5078715;28;19916;-65
2022/01/07 09:02:17;;;;;;;;;;;20.40;52.90;;;;;;5092329;27;20018;-64
2022/01/07 09:04:43;;;;;;;;;;;20.40;52.90;;;;;;5098375;27;20007;-64
2022/01/07 09:07:08;;;;;;;;;;;20.40;52.90;;;;;;5104618;27;20565;-61
2022/01/07 09:09:34;;;;;;;;;;;20.40;52.90;;;;;;5108381;27;19959;-64
2022/01/07 09:12:00;;;;;;;;;;;20.40;53.00;;;;;;5103841;27;19958;-64
2022/01/07 09:14:25;;;;;;;;;;;20.30;52.90;;;;;;5094480;27;19923;-64
2022/01/07 09:16:51;;;;;;;;;;;20.30;52.90;;;;;;5099524;27;19922;-63
2022/01/07 09:19:16;;;;;;;;;;;20.30;52.90;;;;;;5103256;27;19916;-64
2022/01/07 09:21:42;;;;;;;;;;;20.30;52.90;;;;;;5113531;27;19958;-63
2022/01/07 09:24:07;;;;;;;;;;;20.30;52.90;;;;;;5099709;28;19916;-65
2022/01/07 09:26:33;;;;;;;;;;;20.30;52.90;;;;;;5096927;27;19934;-62
2022/01/07 09:28:59;;;;;;;;;;;20.30;52.90;;;;;;5105210;27;20283;-63
2022/01/07 09:31:25;;;;;;;;;;;20.30;52.90;;;;;;5090496;27;20287;-65
2022/01/07 09:33:50;;;;;;;;;;;20.30;52.90;;;;;;5103394;27;19919;-64
2022/01/07 09:36:16;;;;;;;;;;;20.30;52.90;;;;;;5102383;27;19965;-63
2022/01/07 09:38:41;;;;;;;;;;;20.30;52.90;;;;;;5099988;27;19920;-62
2022/01/07 09:41:07;;;;;;;;;;;20.30;52.90;;;;;;5102202;27;20389;-61
2022/01/07 09:43:33;;;;;;;;;;;20.30;52.90;;;;;;5099273;27;19937;-63
2022/01/07 09:45:59;;;;;;;;;;;20.30;52.90;;;;;;5100321;27;19931;-62
2022/01/07 09:48:24;;;;;;;;;;;20.30;52.90;;;;;;5100460;27;19927;-65
2022/01/07 09:50:50;;;;;;;;;;;20.30;53.00;;;;;;5097361;27;19951;-63
2022/01/07 09:53:15;;;;;;;;;;;20.30;53.00;;;;;;5102768;27;19951;-63
2022/01/07 09:55:44;;;;;;;;;;;20.30;53.00;;;;;;5095228;27;19941;-66
2022/01/07 09:58:13;;;;;;;;;;;20.20;53.00;;;;;;5103553;27;20026;-66
2022/01/07 10:00:43;;;;;;;;;;;20.20;53.00;;;;;;5094492;27;20044;-63
2022/01/07 10:03:14;;;;;;;;;;;20.20;53.00;;;;;;5099280;27;20034;-63
2022/01/07 10:05:44;;;;;;;;;;;20.20;53.00;;;;;;5093220;27;20027;-66
2022/01/07 10:08:26;;;;;;;;;;;20.20;53.00;;;;;;5103359;27;19916;-62
2022/01/07 10:11:11;;;;;;;;;;;20.20;53.10;;;;;;5099486;27;19920;-66
2022/01/07 10:13:37;;;;;;;;;;;20.20;53.00;;;;;;5102588;27;19928;-63
2022/01/07 10:16:22;;;;;;;;;;;20.20;53.10;;;;;;5101943;27;19956;-62
2022/01/07 10:18:48;;;;;;;;;;;20.20;53.10;;;;;;5091339;27;20388;-66
2022/01/07 10:21:17;;;;;;;;;;;20.20;53.10;;;;;;5098904;27;20006;-63
2022/01/07 10:23:46;;;;;;;;;;;20.20;53.10;;;;;;5090903;27;19911;-62
2022/01/07 10:26:18;;;;;;;;;;;20.20;53.10;;;;;;5096149;27;19993;-64
2022/01/07 10:28:44;;;;;;;;;;;20.10;53.10;;;;;;5100179;27;19935;-64
2022/01/07 10:31:10;;;;;;;;;;;20.10;53.10;;;;;;5080156;28;19916;-62
2022/01/07 10:33:37;;;;;;;;;;;20.10;53.20;;;;;;5103157;27;19927;-62
2022/01/07 10:36:08;;;;;;;;;;;20.10;53.10;;;;;;5096902;28;19963;-63
2022/01/07 10:38:35;;;;;;;;;;;20.10;53.20;;;;;;5095281;27;19912;-64
2022/01/07 10:41:01;;;;;;;;;;;20.10;53.20;;;;;;5096162;27;19965;-63
2022/01/07 10:43:32;;;;;;;;;;;20.10;53.20;;;;;;5095330;28;19983;-63
2022/01/07 10:45:57;;;;;;;;;;;20.10;53.20;;;;;;5095371;27;19918;-62
2022/01/07 10:48:47;;;;;;;;;;;20.10;53.20;;;;;;5096017;27;20291;-63
2022/01/07 10:51:13;;;;;;;;;;;20.10;53.30;;;;;;5091085;27;19955;-64
2022/01/07 10:53:39;;;;;;;;;;;20.10;53.30;;;;;;5098612;28;19930;-66
2022/01/07 10:56:05;;;;;;;;;;;20.10;53.20;;;;;;5099340;27;19915;-67
2022/01/07 10:58:51;;;;;;;;;;;20.10;53.30;;;;;;5095627;27;20400;-62
2022/01/07 11:01:19;;;;;;;;;;;20.10;53.30;;;;;;5083122;27;19916;-66
2022/01/07 11:03:49;;;;;;;;;;;20.10;53.30;;;;;;5090812;27;20348;-63
2022/01/07 11:06:15;;;;;;;;;;;20.10;53.30;;;;;;5095320;27;20814;-64
2022/01/07 11:08:40;;;;;;;;;;;20.10;53.30;;;;;;5091656;27;20037;-62
2022/01/07 11:11:08;;;;;;;;;;;20.10;53.40;;;;;;5095636;27;20330;-64
2022/01/07 11:13:34;;;;;;;;;;;20.00;53.30;;;;;;5095512;28;19997;-63
2022/01/07 11:16:03;;;;;;;;;;;20.00;53.30;;;;;;5096694;27;19920;-64
2022/01/07 11:18:29;;;;;;;;;;;20.00;53.30;;;;;;5099244;28;19963;-66
2022/01/07 11:20:58;;;;;;;;;;;20.10;53.40;;;;;;5095928;28;20039;-66
2022/01/07 11:23:27;;;;;;;;;;;20.10;53.40;;;;;;5114330;27;20011;-63
2022/01/07 11:25:59;;;;;;;;;;;20.00;53.30;;;;;;5100712;27;19916;-62
2022/01/07 11:28:24;;;;;;;;;;;20.00;53.40;;;;;;5094531;28;19949;-63
2022/01/07 11:30:50;;;;;;;;;;;20.00;53.40;;;;;;5085959;28;19924;-64
2022/01/07 11:33:18;;;;;;;;;;;20.00;53.40;;;;;;5097465;27;19916;-66
2022/01/07 11:35:45;;;;;;;;;;;20.00;53.40;;;;;;5092099;28;19961;-63
2022/01/07 11:38:31;;;;;;;;;;;20.00;53.50;;;;;;5092071;28;19937;-66
2022/01/07 11:40:56;;;;;;;;;;;20.00;53.50;;;;;;5092799;28;20441;-64
2022/01/07 11:43:23;;;;;;;;;;;20.00;53.50;;;;;;5095755;28;19915;-63
2022/01/07 11:45:49;;;;;;;;;;;20.00;53.50;;;;;;5098914;28;20031;-64
2022/01/07 11:48:16;;;;;;;;;;;20.00;53.50;;;;;;5101475;28;19915;-64
2022/01/07 11:51:07;;;;;;;;;;;20.00;53.50;;;;;;5092383;28;19916;-64
2022/01/07 11:53:36;;;;;;;;;;;20.00;53.60;;;;;;5091730;28;19931;-63
2022/01/07 11:56:02;;;;;;;;;;;20.00;53.50;;;;;;5095706;28;19922;-66
2022/01/07 11:58:55;;;;;;;;;;;20.00;53.60;;;;;;5096505;28;19912;-63
2022/01/07 12:01:32;;;;;;;;;;;20.00;53.60;;;;;;5096043;28;20360;-63
2022/01/07 12:03:59;;;;;;;;;;;20.00;53.60;;;;;;5082409;28;19920;-63
2022/01/07 12:06:25;;;;;;;;;;;20.00;53.60;;;;;;5099375;28;19957;-67
2022/01/07 12:09:03;;;;;;;;;;;20.00;53.60;;;;;;5107524;27;19916;-64
2022/01/07 12:11:30;;;;;;;;;;;20.00;53.60;;;;;;5098486;28;19920;-66
2022/01/07 12:13:55;;;;;;;;;;;20.00;53.60;;;;;;5097849;28;19923;-64
2022/01/07 12:16:21;;;;;;;;;;;20.00;53.70;;;;;;5085817;28;19916;-66
2022/01/07 12:18:47;;;;;;;;;;;20.00;53.70;;;;;;5099435;27;20018;-66
2022/01/07 12:21:13;;;;;;;;;;;20.00;53.70;;;;;;5115079;27;20014;-63
2022/01/07 12:23:39;;;;;;;;;;;20.00;53.70;;;;;;5103262;27;19945;-63
2022/01/07 12:26:05;;;;;;;;;;;19.90;53.70;;;;;;5103289;27;19952;-64
2022/01/07 12:28:37;;;;;;;;;;;20.00;53.70;;;;;;5109645;27;19958;-63
2022/01/07 12:31:09;;;;;;;;;;;19.90;53.70;;;;;;5102694;28;20410;-68
2022/01/07 12:33:36;;;;;;;;;;;20.00;53.80;;;;;;5102859;27;19919;-64
2022/01/07 12:36:02;;;;;;;;;;;19.90;54.00;;;;;;5106264;27;20318;-64
2022/01/07 12:38:27;;;;;;;;;;;19.90;53.80;;;;;;5102725;27;19954;-63
2022/01/07 12:40:58;;;;;;;;;;;20.00;54.00;;;;;;5097689;28;19922;-67
2022/01/07 12:43:29;;;;;;;;;;;19.90;53.90;;;;;;5111610;27;19915;-64
2022/01/07 12:45:56;;;;;;;;;;;19.90;53.90;;;;;;5094876;28;19985;-64
2022/01/07 12:48:32;;;;;;;;;;;19.90;53.90;;;;;;5094108;27;19912;-64
2022/01/07 12:51:02;;;;;;;;;;;19.90;54.00;;;;;;5100374;27;19964;-67
2022/01/07 12:53:27;;;;;;;;;;;19.90;54.10;;;;;;5097244;28;19927;-65
2022/01/07 12:55:53;;;;;;;;;;;19.90;54.10;;;;;;5098742;27;20010;-64
2022/01/07 12:58:26;;;;;;;;;;;19.90;54.00;;;;;;5097141;27;19920;-64
2022/01/07 13:00:51;;;;;;;;;;;19.90;54.10;;;;;;5093375;27;19998;-64
2022/01/07 13:03:24;;;;;;;;;;;19.90;54.60;;;;;;5098039;27;20655;-65
2022/01/07 13:05:49;;;;;;;;;;;19.90;54.50;;;;;;5100292;27;19959;-65
2022/01/07 13:08:17;;;;;;;;;;;19.90;54.70;;;;;;5093288;27;20062;-65
2022/01/07 13:10:47;;;;;;;;;;;19.90;54.70;;;;;;5093020;27;20120;-64
2022/01/07 13:13:13;;;;;;;;;;;19.90;54.80;;;;;;5088729;27;19938;-64
2022/01/07 13:15:42;;;;;;;;;;;19.90;54.90;;;;;;5090057;27;19924;-64
2022/01/07 13:18:14;;;;;;;;;;;19.90;54.90;;;;;;5092210;28;19940;-64
2022/01/07 13:20:39;;;;;;;;;;;19.90;55.50;;;;;;5096013;27;20037;-67
2022/01/07 13:23:05;;;;;;;;;;;19.90;55.10;;;;;;5086811;28;20006;-65
2022/01/07 13:25:30;;;;;;;;;;;19.90;55.10;;;;;;5096276;27;20674;-66
2022/01/07 13:27:56;;;;;;;;;;;19.90;55.10;;;;;;5090926;27;19912;-64
2022/01/07 13:30:43;;;;;;;;;;;19.90;55.20;;;;;;5089015;27;20710;-64
2022/01/07 13:33:09;;;;;;;;;;;19.80;55.10;;;;;;5095913;27;19998;-64
2022/01/07 13:35:36;;;;;;;;;;;19.90;55.30;;;;;;5093499;27;19920;-67
2022/01/07 13:38:03;;;;;;;;;;;19.90;55.30;;;;;;5089062;27;20003;-65
2022/01/07 13:40:29;;;;;;;;;;;19.90;55.40;;;;;;5094637;27;20295;-67
2022/01/07 13:43:15;;;;;;;;;;;19.90;55.50;;;;;;5091850;27;20015;-66
2022/01/07 13:45:41;;;;;;;;;;;19.90;55.40;;;;;;5090681;27;19924;-66
2022/01/07 13:48:08;;;;;;;;;;;19.80;55.30;;;;;;5075886;27;19951;-67
2022/01/07 13:50:35;;;;;;;;;;;19.90;55.40;;;;;;5069442;28;20321;-64
2022/01/07 13:53:10;;;;;;;;;;;19.80;55.40;;;;;;5087421;27;19916;-64
2022/01/07 13:55:36;;;;;;;;;;;19.90;55.50;;;;;;5088176;28;20096;-65
2022/01/07 13:58:19;;;;;;;;;;;19.90;55.50;;;;;;5084816;27;20347;-65
2022/01/07 14:00:46;;;;;;;;;;;19.90;55.50;;;;;;5092213;27;19981;-67
2022/01/07 14:03:13;;;;;;;;;;;19.90;55.60;;;;;;5069035;28;20042;-66
2022/01/07 14:05:39;;;;;;;;;;;19.90;55.60;;;;;;5084472;27;22366;-65
2022/01/07 14:08:14;;;;;;;;;;;19.90;55.70;;;;;;5076856;27;19950;-66
2022/01/07 14:10:41;;;;;;;;;;;19.80;55.60;;;;;;5073656;28;19920;-65
2022/01/07 14:13:12;;;;;;;;;;;19.80;55.60;;;;;;5089684;28;19970;-67
2022/01/07 14:15:40;;;;;;;;;;;19.80;55.60;;;;;;5087404;27;19976;-67
2022/01/07 14:18:07;;;;;;;;;;;19.90;55.80;;;;;;5100829;27;19915;-65
2022/01/07 14:20:49;;;;;;;;;;;19.90;55.80;;;;;;5075694;27;20021;-66
2022/01/07 14:23:23;;;;;;;;;;;19.90;55.80;;;;;;5095008;27;19962;-67
2022/01/07 14:25:50;;;;;;;;;;;19.90;55.80;;;;;;5086451;27;20398;-64
2022/01/07 14:28:18;;;;;;;;;;;19.80;55.80;;;;;;5088411;27;19926;-64